Las Vegas, NM (87701)

4:58 PM MDT on July 29, 2016 (GMT -0600)
North 8th. Street Extension | | Change Station

Elev 6526 ft 35.61 °N, 105.23 °W | Updated 7 seconds ago

Overcast
Overcast
66.6 °F
Feels Like 66.6 °F
N
3.4
Wind Variable Wind from SSW
Gusts 13.2 mph

Today
High -- | Low -- °F
--% Chance of Precip.
Yesterday
High -- | Low -- °F
Precip. -- in
Pressure 30.05 in
Visibility 4.0 miles
Clouds Few 5500 ft
Overcast 9000 ft
Dew Point 52 °F
Humidity 59%
Rainfall 0.09 in
Snow Depth Not available.
6:07 AM 8:06 PM
Waning Crescent, 18% visible
METAR KLVS 292253Z AUTO 34012KT 4SM +TSRA FEW055 OVC090 15/11 A3029 RMK AO2 PK WND 01040/2211 WSHFT 2202 LTG DSNT E-S RAB34 TSB33 SLP174 P0009 T01500111
Pressure 30.05 in
Visibility 4.0 miles
Clouds Few 5500 ft
Overcast 9000 ft
Dew Point 52 °F
Humidity 59%
Rainfall 0.09 in
Snow Depth Not available.
6:07 AM 8:06 PM
Waning Crescent, 18% visible
METAR KLVS 292253Z AUTO 34012KT 4SM +TSRA FEW055 OVC090 15/11 A3029 RMK AO2 PK WND 01040/2211 WSHFT 2202 LTG DSNT E-S RAB34 TSB33 SLP174 P0009 T01500111

10-Day Weather Forecast

Almanac

Astronomy

Jul. 29, 2016 Rise Set
Actual Time
Civil Twilight
Nautical Twilight
Astronomical Twilight
Moon
Length of Visible Light
Length of Day
Tomorrow will be .
, % of the Moon is Illuminated

Today's Extremes

State Highs State Lows

Community

WunderPhotos

Upload Photos

1,928,436 photos uploaded!

WunderBlog® & News

Nearby

Air Quality

  Air Quality AQ Index Pollutant
Not available.

Snow Depth

Station Depth Elevation

Earthquake Activity

City Distance Mag. Time & Date
Minimum magnitude displayed is 2.5.

Coastal Water Temperatures

Place Temperature

Stations

Nearby Weather Stations

Station Location Temp. Windchill Dew Point Humidity Wind Precip. Elev Updated Type
                   

Watches & Warnings

There are currently no watches in effect.